sensor_id;sensor_type;location;lat;lon;timestamp;temperature;humidity
51950;DHT22;37974;53.218;6.640;2022-12-29T00:00:16;10.00;99.90
51950;DHT22;37974;53.218;6.640;2022-12-29T00:02:41;9.90;99.90
51950;DHT22;37974;53.218;6.640;2022-12-29T00:05:10;9.90;99.90
51950;DHT22;37974;53.218;6.640;2022-12-29T00:07:35;10.40;99.90
51950;DHT22;37974;53.218;6.640;2022-12-29T00:10:04;10.00;99.90
51950;DHT22;37974;53.218;6.640;2022-12-29T00:12:33;10.10;99.90
51950;DHT22;37974;53.218;6.640;2022-12-29T00:15:17;10.00;99.90
51950;DHT22;37974;53.218;6.640;2022-12-29T00:18:01;9.90;99.90
51950;DHT22;37974;53.218;6.640;2022-12-29T00:20:27;9.60;99.90
51950;DHT22;37974;53.218;6.640;2022-12-29T00:23:11;10.00;99.90
51950;DHT22;37974;53.218;6.640;2022-12-29T00:25:55;10.00;99.90
51950;DHT22;37974;53.218;6.640;2022-12-29T00:28:39;9.30;99.90
51950;DHT22;37974;53.218;6.640;2022-12-29T00:31:24;10.00;99.90
51950;DHT22;37974;53.218;6.640;2022-12-29T00:34:13;10.00;99.90
51950;DHT22;37974;53.218;6.640;2022-12-29T00:37:03;9.70;99.90
51950;DHT22;37974;53.218;6.640;2022-12-29T00:39:28;10.00;99.90
51950;DHT22;37974;53.218;6.640;2022-12-29T00:42:17;10.10;99.90
51950;DHT22;37974;53.218;6.640;2022-12-29T00:45:04;10.20;99.90
51950;DHT22;37974;53.218;6.640;2022-12-29T00:47:30;10.10;99.90
51950;DHT22;37974;53.218;6.640;2022-12-29T00:49:59;10.10;99.90
51950;DHT22;37974;53.218;6.640;2022-12-29T00:52:25;10.20;99.90
51950;DHT22;37974;53.218;6.640;2022-12-29T00:54:53;10.10;99.90
51950;DHT22;37974;53.218;6.640;2022-12-29T00:57:19;10.20;99.90
51950;DHT22;37974;53.218;6.640;2022-12-29T00:59:47;10.20;99.90
51950;DHT22;37974;53.218;6.640;2022-12-29T01:02:15;10.10;99.90
51950;DHT22;37974;53.218;6.640;2022-12-29T01:04:43;10.20;99.90
51950;DHT22;37974;53.218;6.640;2022-12-29T01:07:09;10.30;99.90
51950;DHT22;37974;53.218;6.640;2022-12-29T01:09:38;10.20;99.90
51950;DHT22;37974;53.218;6.640;2022-12-29T01:12:40;10.30;99.90
51950;DHT22;37974;53.218;6.640;2022-12-29T01:15:09;10.40;99.90
51950;DHT22;37974;53.218;6.640;2022-12-29T01:17:38;10.30;99.90
51950;DHT22;37974;53.218;6.640;2022-12-29T01:20:06;10.40;99.90
51950;DHT22;37974;53.218;6.640;2022-12-29T01:22:37;10.30;99.90
51950;DHT22;37974;53.218;6.640;2022-12-29T01:25:04;10.20;99.90
51950;DHT22;37974;53.218;6.640;2022-12-29T01:27:30;10.30;99.90
51950;DHT22;37974;53.218;6.640;2022-12-29T01:29:56;10.40;99.90
51950;DHT22;37974;53.218;6.640;2022-12-29T01:32:25;10.30;99.90
51950;DHT22;37974;53.218;6.640;2022-12-29T01:34:50;10.30;99.90
51950;DHT22;37974;53.218;6.640;2022-12-29T01:37:16;10.30;99.90
51950;DHT22;37974;53.218;6.640;2022-12-29T01:39:42;10.40;99.90
51950;DHT22;37974;53.218;6.640;2022-12-29T01:42:17;10.30;99.90
51950;DHT22;37974;53.218;6.640;2022-12-29T01:44:52;10.30;99.90
51950;DHT22;37974;53.218;6.640;2022-12-29T01:49:51;10.20;99.90
51950;DHT22;37974;53.218;6.640;2022-12-29T01:52:18;10.20;99.90
51950;DHT22;37974;53.218;6.640;2022-12-29T01:54:48;10.20;99.90
51950;DHT22;37974;53.218;6.640;2022-12-29T01:57:20;10.10;99.90
51950;DHT22;37974;53.218;6.640;2022-12-29T01:59:53;10.20;99.90
51950;DHT22;37974;53.218;6.640;2022-12-29T02:02:20;10.10;99.90
51950;DHT22;37974;53.218;6.640;2022-12-29T02:04:46;10.00;99.90
51950;DHT22;37974;53.218;6.640;2022-12-29T02:07:18;10.10;99.90
51950;DHT22;37974;53.218;6.640;2022-12-29T02:09:48;10.00;99.90
51950;DHT22;37974;53.218;6.640;2022-12-29T02:12:14;10.10;99.90
51950;DHT22;37974;53.218;6.640;2022-12-29T02:14:40;10.00;99.90
51950;DHT22;37974;53.218;6.640;2022-12-29T02:17:12;9.60;99.90
51950;DHT22;37974;53.218;6.640;2022-12-29T02:32:59;10.00;99.90
51950;DHT22;37974;53.218;6.640;2022-12-29T02:35:43;10.10;99.90
51950;DHT22;37974;53.218;6.640;2022-12-29T02:41:13;10.10;99.90
51950;DHT22;37974;53.218;6.640;2022-12-29T02:48:51;10.10;99.90
51950;DHT22;37974;53.218;6.640;2022-12-29T02:51:24;10.00;99.90
51950;DHT22;37974;53.218;6.640;2022-12-29T02:53:53;10.10;99.90
51950;DHT22;37974;53.218;6.640;2022-12-29T02:56:37;10.10;99.90
51950;DHT22;37974;53.218;6.640;2022-12-29T02:59:03;10.10;99.90
51950;DHT22;37974;53.218;6.640;2022-12-29T03:01:53;10.00;99.90
51950;DHT22;37974;53.218;6.640;2022-12-29T03:04:46;10.10;99.90
51950;DHT22;37974;53.218;6.640;2022-12-29T03:07:30;10.10;99.90
51950;DHT22;37974;53.218;6.640;2022-12-29T03:10:11;10.00;99.90
51950;DHT22;37974;53.218;6.640;2022-12-29T03:12:54;10.10;99.90
51950;DHT22;37974;53.218;6.640;2022-12-29T03:15:59;10.20;99.90
51950;DHT22;37974;53.218;6.640;2022-12-29T03:18:44;10.20;99.90
51950;DHT22;37974;53.218;6.640;2022-12-29T03:21:17;10.10;99.90
51950;DHT22;37974;53.218;6.640;2022-12-29T03:23:46;10.20;99.90
51950;DHT22;37974;53.218;6.640;2022-12-29T03:26:15;10.10;99.90
51950;DHT22;37974;53.218;6.640;2022-12-29T03:28:47;10.20;99.90
51950;DHT22;37974;53.218;6.640;2022-12-29T03:31:16;10.10;99.90
51950;DHT22;37974;53.218;6.640;2022-12-29T03:33:43;10.10;99.90
51950;DHT22;37974;53.218;6.640;2022-12-29T03:36:13;10.20;99.90
51950;DHT22;37974;53.218;6.640;2022-12-29T03:38:47;10.10;99.90
51950;DHT22;37974;53.218;6.640;2022-12-29T03:41:20;10.20;99.90
51950;DHT22;37974;53.218;6.640;2022-12-29T03:43:48;10.10;99.90
51950;DHT22;37974;53.218;6.640;2022-12-29T03:46:13;10.10;99.90
51950;DHT22;37974;53.218;6.640;2022-12-29T03:48:39;10.10;99.90
51950;DHT22;37974;53.218;6.640;2022-12-29T03:51:05;10.00;99.90
51950;DHT22;37974;53.218;6.640;2022-12-29T03:53:31;9.90;99.90
51950;DHT22;37974;53.218;6.640;2022-12-29T03:55:56;9.90;99.90
51950;DHT22;37974;53.218;6.640;2022-12-29T03:58:22;9.90;99.90
51950;DHT22;37974;53.218;6.640;2022-12-29T04:00:48;9.90;99.90
51950;DHT22;37974;53.218;6.640;2022-12-29T04:03:14;9.90;99.90
51950;DHT22;37974;53.218;6.640;2022-12-29T04:05:39;9.90;99.90
51950;DHT22;37974;53.218;6.640;2022-12-29T04:08:05;9.90;99.90
51950;DHT22;37974;53.218;6.640;2022-12-29T04:10:31;9.90;99.90
51950;DHT22;37974;53.218;6.640;2022-12-29T04:12:57;10.00;99.90
51950;DHT22;37974;53.218;6.640;2022-12-29T04:15:22;9.90;99.90
51950;DHT22;37974;53.218;6.640;2022-12-29T04:17:49;9.90;99.90
51950;DHT22;37974;53.218;6.640;2022-12-29T04:20:15;10.00;99.90
51950;DHT22;37974;53.218;6.640;2022-12-29T04:23:01;10.00;99.90
51950;DHT22;37974;53.218;6.640;2022-12-29T04:25:27;9.50;99.90
51950;DHT22;37974;53.218;6.640;2022-12-29T04:27:52;10.00;99.90
51950;DHT22;37974;53.218;6.640;2022-12-29T04:30:18;10.00;99.90
51950;DHT22;37974;53.218;6.640;2022-12-29T04:32:44;10.00;99.90
51950;DHT22;37974;53.218;6.640;2022-12-29T04:35:10;9.90;99.90
51950;DHT22;37974;53.218;6.640;2022-12-29T04:37:35;9.90;99.90
51950;DHT22;37974;53.218;6.640;2022-12-29T04:40:01;10.00;99.90
51950;DHT22;37974;53.218;6.640;2022-12-29T04:42:27;10.00;99.90
51950;DHT22;37974;53.218;6.640;2022-12-29T04:44:55;9.90;99.90
51950;DHT22;37974;53.218;6.640;2022-12-29T04:47:21;10.00;99.90
51950;DHT22;37974;53.218;6.640;2022-12-29T04:49:51;9.90;99.90
51950;DHT22;37974;53.218;6.640;2022-12-29T04:52:17;9.90;99.90
51950;DHT22;37974;53.218;6.640;2022-12-29T04:54:43;9.90;99.90
51950;DHT22;37974;53.218;6.640;2022-12-29T04:57:08;9.90;99.90
51950;DHT22;37974;53.218;6.640;2022-12-29T04:59:36;9.90;99.90
51950;DHT22;37974;53.218;6.640;2022-12-29T05:02:02;9.80;99.90
51950;DHT22;37974;53.218;6.640;2022-12-29T05:04:28;9.80;99.90
51950;DHT22;37974;53.218;6.640;2022-12-29T05:06:53;9.70;99.90
51950;DHT22;37974;53.218;6.640;2022-12-29T05:09:19;9.70;99.90
51950;DHT22;37974;53.218;6.640;2022-12-29T05:11:45;9.60;99.90
51950;DHT22;37974;53.218;6.640;2022-12-29T05:14:11;9.70;99.90
51950;DHT22;37974;53.218;6.640;2022-12-29T05:16:36;9.60;99.90
51950;DHT22;37974;53.218;6.640;2022-12-29T05:19:02;9.50;99.90
51950;DHT22;37974;53.218;6.640;2022-12-29T05:21:28;9.40;99.90
51950;DHT22;37974;53.218;6.640;2022-12-29T05:23:53;9.50;99.90
51950;DHT22;37974;53.218;6.640;2022-12-29T05:26:19;9.40;99.90
51950;DHT22;37974;53.218;6.640;2022-12-29T05:28:45;9.40;99.90
51950;DHT22;37974;53.218;6.640;2022-12-29T05:31:10;9.30;99.90
51950;DHT22;37974;53.218;6.640;2022-12-29T05:33:36;9.30;99.90
51950;DHT22;37974;53.218;6.640;2022-12-29T05:36:06;9.30;99.90
51950;DHT22;37974;53.218;6.640;2022-12-29T05:38:33;9.30;99.90
51950;DHT22;37974;53.218;6.640;2022-12-29T05:40:59;9.20;99.90
51950;DHT22;37974;53.218;6.640;2022-12-29T05:43:27;9.30;99.90
51950;DHT22;37974;53.218;6.640;2022-12-29T05:45:53;9.20;99.90
51950;DHT22;37974;53.218;6.640;2022-12-29T05:48:19;9.40;99.90
51950;DHT22;37974;53.218;6.640;2022-12-29T05:50:49;9.10;99.90
51950;DHT22;37974;53.218;6.640;2022-12-29T05:53:15;9.10;99.90
51950;DHT22;37974;53.218;6.640;2022-12-29T05:55:42;9.00;99.90
51950;DHT22;37974;53.218;6.640;2022-12-29T05:58:08;9.10;99.90
51950;DHT22;37974;53.218;6.640;2022-12-29T06:00:34;9.10;99.90
51950;DHT22;37974;53.218;6.640;2022-12-29T06:03:00;8.50;99.90
51950;DHT22;37974;53.218;6.640;2022-12-29T06:05:29;9.20;99.90
51950;DHT22;37974;53.218;6.640;2022-12-29T06:07:55;9.20;99.90
51950;DHT22;37974;53.218;6.640;2022-12-29T06:10:20;9.20;99.90
51950;DHT22;37974;53.218;6.640;2022-12-29T06:12:46;9.20;99.90
51950;DHT22;37974;53.218;6.640;2022-12-29T06:15:12;9.30;99.90
51950;DHT22;37974;53.218;6.640;2022-12-29T06:17:39;9.30;99.90
51950;DHT22;37974;53.218;6.640;2022-12-29T06:20:05;9.30;99.90
51950;DHT22;37974;53.218;6.640;2022-12-29T06:22:31;9.30;99.90
51950;DHT22;37974;53.218;6.640;2022-12-29T06:24:56;9.60;99.90
51950;DHT22;37974;53.218;6.640;2022-12-29T06:27:22;9.40;99.90
51950;DHT22;37974;53.218;6.640;2022-12-29T06:29:50;9.30;99.90
51950;DHT22;37974;53.218;6.640;2022-12-29T06:32:18;9.30;99.90
51950;DHT22;37974;53.218;6.640;2022-12-29T06:34:46;9.20;99.90
51950;DHT22;37974;53.218;6.640;2022-12-29T06:37:14;9.10;99.90
51950;DHT22;37974;53.218;6.640;2022-12-29T06:39:40;9.10;99.90
51950;DHT22;37974;53.218;6.640;2022-12-29T06:42:09;9.10;99.90
51950;DHT22;37974;53.218;6.640;2022-12-29T06:44:35;9.00;99.90
51950;DHT22;37974;53.218;6.640;2022-12-29T06:47:01;9.00;99.90
51950;DHT22;37974;53.218;6.640;2022-12-29T06:49:26;9.20;99.90
51950;DHT22;37974;53.218;6.640;2022-12-29T06:51:52;9.00;99.90
51950;DHT22;37974;53.218;6.640;2022-12-29T06:54:18;9.00;99.90
51950;DHT22;37974;53.218;6.640;2022-12-29T06:56:43;9.00;99.90
51950;DHT22;37974;53.218;6.640;2022-12-29T06:59:12;9.00;99.90
51950;DHT22;37974;53.218;6.640;2022-12-29T07:01:38;8.90;99.90
51950;DHT22;37974;53.218;6.640;2022-12-29T07:04:07;8.90;99.90
51950;DHT22;37974;53.218;6.640;2022-12-29T07:06:35;8.90;99.90
51950;DHT22;37974;53.218;6.640;2022-12-29T07:09:00;8.90;99.90
51950;DHT22;37974;53.218;6.640;2022-12-29T07:11:26;8.90;99.90
51950;DHT22;37974;53.218;6.640;2022-12-29T07:13:52;8.90;99.90
51950;DHT22;37974;53.218;6.640;2022-12-29T07:16:20;8.90;99.90
51950;DHT22;37974;53.218;6.640;2022-12-29T07:18:46;9.00;99.90
51950;DHT22;37974;53.218;6.640;2022-12-29T07:21:11;8.90;99.90
51950;DHT22;37974;53.218;6.640;2022-12-29T07:23:37;9.00;99.90
51950;DHT22;37974;53.218;6.640;2022-12-29T07:26:06;9.20;99.90
51950;DHT22;37974;53.218;6.640;2022-12-29T07:28:32;9.00;99.90
51950;DHT22;37974;53.218;6.640;2022-12-29T07:30:58;9.00;99.90
51950;DHT22;37974;53.218;6.640;2022-12-29T07:33:24;9.10;99.90
51950;DHT22;37974;53.218;6.640;2022-12-29T07:35:53;9.10;99.90
51950;DHT22;37974;53.218;6.640;2022-12-29T07:38:19;9.10;99.90
51950;DHT22;37974;53.218;6.640;2022-12-29T07:40:44;9.20;99.90
51950;DHT22;37974;53.218;6.640;2022-12-29T07:43:13;9.20;99.90
51950;DHT22;37974;53.218;6.640;2022-12-29T07:45:39;9.20;99.90
51950;DHT22;37974;53.218;6.640;2022-12-29T07:48:05;9.20;99.90
51950;DHT22;37974;53.218;6.640;2022-12-29T07:50:35;9.30;99.90
51950;DHT22;37974;53.218;6.640;2022-12-29T07:53:01;9.20;99.90
51950;DHT22;37974;53.218;6.640;2022-12-29T07:55:28;9.30;99.90
51950;DHT22;37974;53.218;6.640;2022-12-29T07:57:54;9.30;99.90
51950;DHT22;37974;53.218;6.640;2022-12-29T08:00:21;9.30;99.90
51950;DHT22;37974;53.218;6.640;2022-12-29T08:02:46;9.30;99.90
51950;DHT22;37974;53.218;6.640;2022-12-29T08:05:12;9.30;99.90
51950;DHT22;37974;53.218;6.640;2022-12-29T08:07:38;9.30;99.90
51950;DHT22;37974;53.218;6.640;2022-12-29T08:10:05;9.30;99.90
51950;DHT22;37974;53.218;6.640;2022-12-29T08:12:31;9.30;99.90
51950;DHT22;37974;53.218;6.640;2022-12-29T08:14:56;9.30;99.90
51950;DHT22;37974;53.218;6.640;2022-12-29T08:17:22;9.20;99.90
51950;DHT22;37974;53.218;6.640;2022-12-29T08:19:48;9.20;99.90
51950;DHT22;37974;53.218;6.640;2022-12-29T08:22:15;9.30;99.90
51950;DHT22;37974;53.218;6.640;2022-12-29T08:24:43;9.30;99.90
51950;DHT22;37974;53.218;6.640;2022-12-29T08:27:14;9.30;99.90
51950;DHT22;37974;53.218;6.640;2022-12-29T08:29:40;9.30;99.90
51950;DHT22;37974;53.218;6.640;2022-12-29T08:32:08;9.20;99.90
51950;DHT22;37974;53.218;6.640;2022-12-29T08:34:34;9.30;99.90
51950;DHT22;37974;53.218;6.640;2022-12-29T08:37:00;9.30;99.90
51950;DHT22;37974;53.218;6.640;2022-12-29T08:39:26;9.30;99.90
51950;DHT22;37974;53.218;6.640;2022-12-29T08:41:51;9.40;99.90
51950;DHT22;37974;53.218;6.640;2022-12-29T08:44:20;9.30;99.90
51950;DHT22;37974;53.218;6.640;2022-12-29T08:46:45;9.20;99.90
51950;DHT22;37974;53.218;6.640;2022-12-29T08:49:11;9.20;99.90
51950;DHT22;37974;53.218;6.640;2022-12-29T08:51:37;9.10;99.90
51950;DHT22;37974;53.218;6.640;2022-12-29T08:54:03;9.00;99.90
51950;DHT22;37974;53.218;6.640;2022-12-29T08:56:28;8.90;99.90
51950;DHT22;37974;53.218;6.640;2022-12-29T08:58:54;8.90;99.90
51950;DHT22;37974;53.218;6.640;2022-12-29T09:01:21;9.10;99.90
51950;DHT22;37974;53.218;6.640;2022-12-29T09:03:47;9.00;99.90
51950;DHT22;37974;53.218;6.640;2022-12-29T09:06:14;8.90;99.90
51950;DHT22;37974;53.218;6.640;2022-12-29T09:08:40;9.00;99.90
51950;DHT22;37974;53.218;6.640;2022-12-29T09:11:07;9.00;99.90
51950;DHT22;37974;53.218;6.640;2022-12-29T09:13:33;9.00;99.90
51950;DHT22;37974;53.218;6.640;2022-12-29T09:15:59;8.90;99.90
51950;DHT22;37974;53.218;6.640;2022-12-29T09:18:25;8.90;99.90
51950;DHT22;37974;53.218;6.640;2022-12-29T09:20:59;9.00;99.90
51950;DHT22;37974;53.218;6.640;2022-12-29T09:23:25;9.00;99.90
51950;DHT22;37974;53.218;6.640;2022-12-29T09:25:51;9.00;99.90
51950;DHT22;37974;53.218;6.640;2022-12-29T09:28:17;9.10;99.90
51950;DHT22;37974;53.218;6.640;2022-12-29T09:30:43;9.10;99.90
51950;DHT22;37974;53.218;6.640;2022-12-29T09:33:09;9.10;99.90
51950;DHT22;37974;53.218;6.640;2022-12-29T09:35:35;9.50;99.90
51950;DHT22;37974;53.218;6.640;2022-12-29T09:38:00;9.10;99.90
51950;DHT22;37974;53.218;6.640;2022-12-29T09:40:29;9.50;99.90
51950;DHT22;37974;53.218;6.640;2022-12-29T09:43:20;9.10;99.90
51950;DHT22;37974;53.218;6.640;2022-12-29T09:45:59;9.10;99.90
51950;DHT22;37974;53.218;6.640;2022-12-29T09:48:35;9.10;99.90
51950;DHT22;37974;53.218;6.640;2022-12-29T09:51:08;9.00;99.90
51950;DHT22;37974;53.218;6.640;2022-12-29T09:53:42;9.00;99.90
51950;DHT22;37974;53.218;6.640;2022-12-29T09:56:16;9.00;99.90
51950;DHT22;37974;53.218;6.640;2022-12-29T09:58:49;9.10;99.90
51950;DHT22;37974;53.218;6.640;2022-12-29T10:01:31;9.00;99.90
51950;DHT22;37974;53.218;6.640;2022-12-29T10:03:59;9.20;99.90
51950;DHT22;37974;53.218;6.640;2022-12-29T10:06:42;9.10;99.90
51950;DHT22;37974;53.218;6.640;2022-12-29T10:09:44;9.10;99.90
51950;DHT22;37974;53.218;6.640;2022-12-29T10:15:10;9.10;99.90
51950;DHT22;37974;53.218;6.640;2022-12-29T10:17:52;9.10;99.90
51950;DHT22;37974;53.218;6.640;2022-12-29T10:20:31;9.10;99.90
51950;DHT22;37974;53.218;6.640;2022-12-29T10:23:14;9.00;99.90
51950;DHT22;37974;53.218;6.640;2022-12-29T10:25:45;8.90;99.90
51950;DHT22;37974;53.218;6.640;2022-12-29T10:28:24;8.90;99.90
51950;DHT22;37974;53.218;6.640;2022-12-29T10:30:51;8.80;99.90
51950;DHT22;37974;53.218;6.640;2022-12-29T10:33:22;8.80;99.90
51950;DHT22;37974;53.218;6.640;2022-12-29T10:35:50;8.80;99.90
51950;DHT22;37974;53.218;6.640;2022-12-29T10:38:27;8.70;99.90
51950;DHT22;37974;53.218;6.640;2022-12-29T10:41:08;8.80;99.90
51950;DHT22;37974;53.218;6.640;2022-12-29T10:43:47;8.60;99.90
51950;DHT22;37974;53.218;6.640;2022-12-29T10:46:17;8.50;99.90
51950;DHT22;37974;53.218;6.640;2022-12-29T10:48:44;8.60;99.90
51950;DHT22;37974;53.218;6.640;2022-12-29T10:53:50;8.60;99.90
51950;DHT22;37974;53.218;6.640;2022-12-29T10:56:35;8.70;99.90
51950;DHT22;37974;53.218;6.640;2022-12-29T10:59:19;8.90;99.90
51950;DHT22;37974;53.218;6.640;2022-12-29T11:07:07;8.70;99.90
51950;DHT22;37974;53.218;6.640;2022-12-29T11:09:35;8.90;99.90
51950;DHT22;37974;53.218;6.640;2022-12-29T11:12:19;8.90;99.90
51950;DHT22;37974;53.218;6.640;2022-12-29T11:14:45;8.90;99.90
51950;DHT22;37974;53.218;6.640;2022-12-29T11:17:15;8.90;99.90
51950;DHT22;37974;53.218;6.640;2022-12-29T11:19:42;9.00;99.90
51950;DHT22;37974;53.218;6.640;2022-12-29T11:22:22;9.00;99.90
51950;DHT22;37974;53.218;6.640;2022-12-29T11:24:50;9.00;99.90
51950;DHT22;37974;53.218;6.640;2022-12-29T11:27:17;9.00;99.90
51950;DHT22;37974;53.218;6.640;2022-12-29T11:29:46;9.00;99.90
51950;DHT22;37974;53.218;6.640;2022-12-29T11:32:22;9.00;99.90
51950;DHT22;37974;53.218;6.640;2022-12-29T11:34:49;9.00;99.90
51950;DHT22;37974;53.218;6.640;2022-12-29T11:37:28;9.10;99.90
51950;DHT22;37974;53.218;6.640;2022-12-29T11:40:02;9.10;99.90
51950;DHT22;37974;53.218;6.640;2022-12-29T11:42:39;9.10;99.90
51950;DHT22;37974;53.218;6.640;2022-12-29T11:47:43;9.30;99.90
51950;DHT22;37974;53.218;6.640;2022-12-29T11:50:17;9.30;99.90
51950;DHT22;37974;53.218;6.640;2022-12-29T11:52:48;9.30;99.90
51950;DHT22;37974;53.218;6.640;2022-12-29T11:55:20;9.30;99.90
51950;DHT22;37974;53.218;6.640;2022-12-29T11:57:48;9.30;99.90
51950;DHT22;37974;53.218;6.640;2022-12-29T12:00:18;9.30;99.90
51950;DHT22;37974;53.218;6.640;2022-12-29T12:02:58;9.30;99.90
51950;DHT22;37974;53.218;6.640;2022-12-29T12:05:33;9.40;99.90
51950;DHT22;37974;53.218;6.640;2022-12-29T12:08:09;9.40;99.90
51950;DHT22;37974;53.218;6.640;2022-12-29T12:10:42;9.30;99.90
51950;DHT22;37974;53.218;6.640;2022-12-29T12:13:17;9.20;99.90
51950;DHT22;37974;53.218;6.640;2022-12-29T12:15:50;9.30;99.90
51950;DHT22;37974;53.218;6.640;2022-12-29T12:18:34;9.40;99.90
51950;DHT22;37974;53.218;6.640;2022-12-29T12:21:13;9.40;99.90
51950;DHT22;37974;53.218;6.640;2022-12-29T12:23:57;9.50;99.90
51950;DHT22;37974;53.218;6.640;2022-12-29T12:26:34;9.50;99.90
51950;DHT22;37974;53.218;6.640;2022-12-29T12:29:16;9.50;99.90
51950;DHT22;37974;53.218;6.640;2022-12-29T12:31:46;9.50;99.90
51950;DHT22;37974;53.218;6.640;2022-12-29T12:34:25;9.50;99.90
51950;DHT22;37974;53.218;6.640;2022-12-29T12:37:02;9.60;99.90
51950;DHT22;37974;53.218;6.640;2022-12-29T12:39:45;9.60;99.90
51950;DHT22;37974;53.218;6.640;2022-12-29T12:44:58;9.50;99.90
51950;DHT22;37974;53.218;6.640;2022-12-29T12:47:38;9.40;99.90
51950;DHT22;37974;53.218;6.640;2022-12-29T12:50:18;9.30;99.90
51950;DHT22;37974;53.218;6.640;2022-12-29T12:52:57;9.30;99.90
51950;DHT22;37974;53.218;6.640;2022-12-29T12:55:40;9.30;99.90
51950;DHT22;37974;53.218;6.640;2022-12-29T13:06:44;9.30;99.90
51950;DHT22;37974;53.218;6.640;2022-12-29T13:09:29;9.20;99.90
51950;DHT22;37974;53.218;6.640;2022-12-29T13:15:55;9.30;99.90
51950;DHT22;37974;53.218;6.640;2022-12-29T13:18:44;9.00;99.90
51950;DHT22;37974;53.218;6.640;2022-12-29T13:24:16;8.90;99.90
51950;DHT22;37974;53.218;6.640;2022-12-29T13:26:50;9.00;99.90
51950;DHT22;37974;53.218;6.640;2022-12-29T13:29:33;8.80;99.90
51950;DHT22;37974;53.218;6.640;2022-12-29T13:32:21;8.80;99.90
51950;DHT22;37974;53.218;6.640;2022-12-29T13:35:17;8.80;99.90
51950;DHT22;37974;53.218;6.640;2022-12-29T13:37:54;8.70;99.90
51950;DHT22;37974;53.218;6.640;2022-12-29T13:40:24;8.70;99.90
51950;DHT22;37974;53.218;6.640;2022-12-29T13:42:52;8.70;99.90
51950;DHT22;37974;53.218;6.640;2022-12-29T13:45:22;8.70;99.90
51950;DHT22;37974;53.218;6.640;2022-12-29T13:48:00;8.60;99.90
51950;DHT22;37974;53.218;6.640;2022-12-29T13:50:29;8.60;99.90
51950;DHT22;37974;53.218;6.640;2022-12-29T14:01:04;8.90;99.90
51950;DHT22;37974;53.218;6.640;2022-12-29T14:03:51;9.00;99.90
51950;DHT22;37974;53.218;6.640;2022-12-29T14:08:48;9.10;99.90
51950;DHT22;37974;53.218;6.640;2022-12-29T14:11:16;9.10;99.90
51950;DHT22;37974;53.218;6.640;2022-12-29T14:13:45;9.00;99.90
51950;DHT22;37974;53.218;6.640;2022-12-29T14:16:26;8.90;99.90
51950;DHT22;37974;53.218;6.640;2022-12-29T14:18:54;8.80;99.90
51950;DHT22;37974;53.218;6.640;2022-12-29T14:21:25;8.70;99.90
51950;DHT22;37974;53.218;6.640;2022-12-29T14:24:28;8.60;99.90
51950;DHT22;37974;53.218;6.640;2022-12-29T14:34:52;8.50;99.90
51950;DHT22;37974;53.218;6.640;2022-12-29T14:37:26;8.40;99.90
51950;DHT22;37974;53.218;6.640;2022-12-29T14:42:45;8.40;99.90
51950;DHT22;37974;53.218;6.640;2022-12-29T14:50:16;8.20;99.90
51950;DHT22;37974;53.218;6.640;2022-12-29T14:52:58;8.20;99.90
51950;DHT22;37974;53.218;6.640;2022-12-29T14:55:40;8.20;99.90
51950;DHT22;37974;53.218;6.640;2022-12-29T15:00:47;8.20;99.90
51950;DHT22;37974;53.218;6.640;2022-12-29T15:03:24;8.50;99.90
51950;DHT22;37974;53.218;6.640;2022-12-29T15:06:04;8.20;99.90
51950;DHT22;37974;53.218;6.640;2022-12-29T15:08:33;8.20;99.90
51950;DHT22;37974;53.218;6.640;2022-12-29T15:11:09;8.10;99.90
51950;DHT22;37974;53.218;6.640;2022-12-29T15:13:39;8.10;99.90
51950;DHT22;37974;53.218;6.640;2022-12-29T15:16:25;8.00;99.90
51950;DHT22;37974;53.218;6.640;2022-12-29T15:18:52;7.90;99.90
51950;DHT22;37974;53.218;6.640;2022-12-29T15:21:30;8.00;99.90
51950;DHT22;37974;53.218;6.640;2022-12-29T15:23:56;7.90;99.90
51950;DHT22;37974;53.218;6.640;2022-12-29T15:26:23;7.80;99.90
51950;DHT22;37974;53.218;6.640;2022-12-29T15:28:52;8.10;99.90
51950;DHT22;37974;53.218;6.640;2022-12-29T15:31:22;7.80;99.90
51950;DHT22;37974;53.218;6.640;2022-12-29T15:33:51;7.80;99.90
51950;DHT22;37974;53.218;6.640;2022-12-29T15:36:22;8.10;99.90
51950;DHT22;37974;53.218;6.640;2022-12-29T15:38:52;7.70;99.90
51950;DHT22;37974;53.218;6.640;2022-12-29T15:41:25;7.60;99.90
51950;DHT22;37974;53.218;6.640;2022-12-29T15:43:57;7.80;99.90
51950;DHT22;37974;53.218;6.640;2022-12-29T15:46:30;7.70;99.90
51950;DHT22;37974;53.218;6.640;2022-12-29T15:48:57;7.60;99.90
51950;DHT22;37974;53.218;6.640;2022-12-29T15:51:29;7.70;99.90
51950;DHT22;37974;53.218;6.640;2022-12-29T15:53:56;7.70;99.90
51950;DHT22;37974;53.218;6.640;2022-12-29T15:56:22;7.60;99.90
51950;DHT22;37974;53.218;6.640;2022-12-29T15:58:51;7.60;99.90
51950;DHT22;37974;53.218;6.640;2022-12-29T16:01:19;7.60;99.90
51950;DHT22;37974;53.218;6.640;2022-12-29T16:03:45;7.60;99.90
51950;DHT22;37974;53.218;6.640;2022-12-29T16:06:28;7.50;99.90
51950;DHT22;37974;53.218;6.640;2022-12-29T16:09:16;7.50;99.90
51950;DHT22;37974;53.218;6.640;2022-12-29T16:12:25;7.50;99.90
51950;DHT22;37974;53.218;6.640;2022-12-29T16:18:46;7.60;99.90
51950;DHT22;37974;53.218;6.640;2022-12-29T16:21:34;7.40;99.90
51950;DHT22;37974;53.218;6.640;2022-12-29T16:24:07;7.70;99.90
51950;DHT22;37974;53.218;6.640;2022-12-29T16:26:34;7.70;99.90
51950;DHT22;37974;53.218;6.640;2022-12-29T16:29:04;7.70;99.90
51950;DHT22;37974;53.218;6.640;2022-12-29T16:31:53;7.70;99.90
51950;DHT22;37974;53.218;6.640;2022-12-29T16:37:28;7.80;99.90
51950;DHT22;37974;53.218;6.640;2022-12-29T16:39:54;7.70;99.90
51950;DHT22;37974;53.218;6.640;2022-12-29T16:47:06;7.60;99.90
51950;DHT22;37974;53.218;6.640;2022-12-29T16:53:32;7.40;99.90
51950;DHT22;37974;53.218;6.640;2022-12-29T16:56:56;6.60;99.90
51950;DHT22;37974;53.218;6.640;2022-12-29T16:59:33;7.00;99.90
51950;DHT22;37974;53.218;6.640;2022-12-29T17:02:05;6.90;99.90
51950;DHT22;37974;53.218;6.640;2022-12-29T17:04:33;6.90;99.90
51950;DHT22;37974;53.218;6.640;2022-12-29T17:07:02;6.80;99.90
51950;DHT22;37974;53.218;6.640;2022-12-29T17:09:34;6.70;99.90
51950;DHT22;37974;53.218;6.640;2022-12-29T17:12:01;6.60;99.90
51950;DHT22;37974;53.218;6.640;2022-12-29T17:14:50;6.60;99.90
51950;DHT22;37974;53.218;6.640;2022-12-29T17:17:30;6.60;99.90
51950;DHT22;37974;53.218;6.640;2022-12-29T17:20:17;6.50;99.90
51950;DHT22;37974;53.218;6.640;2022-12-29T17:22:46;6.60;99.90
51950;DHT22;37974;53.218;6.640;2022-12-29T17:25:17;6.60;99.90
51950;DHT22;37974;53.218;6.640;2022-12-29T17:27:48;6.80;99.90
51950;DHT22;37974;53.218;6.640;2022-12-29T17:30:29;6.60;99.90
51950;DHT22;37974;53.218;6.640;2022-12-29T17:33:06;6.50;99.90
51950;DHT22;37974;53.218;6.640;2022-12-29T17:36:26;6.40;99.90
51950;DHT22;37974;53.218;6.640;2022-12-29T17:38:37;6.70;99.90
51950;DHT22;37974;53.218;6.640;2022-12-29T17:42:09;6.70;99.90
51950;DHT22;37974;53.218;6.640;2022-12-29T17:45:32;6.70;99.90
51950;DHT22;37974;53.218;6.640;2022-12-29T17:48:02;7.00;99.90
51950;DHT22;37974;53.218;6.640;2022-12-29T17:53:40;7.00;99.90